sensor_id;sensor_type;location;lat;lon;timestamp;P1;durP1;ratioP1;P2;durP2;ratioP2
28822;SDS011;15961;54.678;9.110;2023-10-09T00:00:24;6.35;;;3.80;;
28822;SDS011;15961;54.678;9.110;2023-10-09T00:03:04;6.97;;;3.42;;
28822;SDS011;15961;54.678;9.110;2023-10-09T00:05:31;7.88;;;3.67;;
28822;SDS011;15961;54.678;9.110;2023-10-09T00:08:11;5.30;;;3.03;;
28822;SDS011;15961;54.678;9.110;2023-10-09T00:10:55;6.47;;;3.22;;
28822;SDS011;15961;54.678;9.110;2023-10-09T00:13:24;5.22;;;3.38;;
28822;SDS011;15961;54.678;9.110;2023-10-09T00:16:05;4.40;;;2.90;;
28822;SDS011;15961;54.678;9.110;2023-10-09T00:18:38;4.22;;;2.78;;
28822;SDS011;15961;54.678;9.110;2023-10-09T00:21:04;5.65;;;3.70;;
28822;SDS011;15961;54.678;9.110;2023-10-09T00:23:45;6.53;;;4.00;;
28822;SDS011;15961;54.678;9.110;2023-10-09T00:26:17;5.07;;;3.05;;
28822;SDS011;15961;54.678;9.110;2023-10-09T00:28:42;5.78;;;2.83;;
28822;SDS011;15961;54.678;9.110;2023-10-09T00:31:12;8.52;;;3.03;;
28822;SDS011;15961;54.678;9.110;2023-10-09T00:33:41;4.55;;;3.47;;
28822;SDS011;15961;54.678;9.110;2023-10-09T00:36:07;4.43;;;2.38;;
28822;SDS011;15961;54.678;9.110;2023-10-09T00:38:36;7.47;;;3.08;;
28822;SDS011;15961;54.678;9.110;2023-10-09T00:41:03;3.58;;;2.10;;
28822;SDS011;15961;54.678;9.110;2023-10-09T00:43:31;6.00;;;3.33;;
28822;SDS011;15961;54.678;9.110;2023-10-09T00:45:57;6.60;;;2.78;;
28822;SDS011;15961;54.678;9.110;2023-10-09T00:48:28;4.10;;;3.05;;
28822;SDS011;15961;54.678;9.110;2023-10-09T00:51:02;4.13;;;3.17;;
28822;SDS011;15961;54.678;9.110;2023-10-09T00:53:40;5.18;;;3.22;;
28822;SDS011;15961;54.678;9.110;2023-10-09T00:56:06;4.43;;;2.80;;
28822;SDS011;15961;54.678;9.110;2023-10-09T00:58:36;3.47;;;2.60;;
28822;SDS011;15961;54.678;9.110;2023-10-09T01:01:02;5.05;;;2.78;;
28822;SDS011;15961;54.678;9.110;2023-10-09T01:03:29;3.97;;;2.50;;
28822;SDS011;15961;54.678;9.110;2023-10-09T01:05:59;5.93;;;2.50;;
28822;SDS011;15961;54.678;9.110;2023-10-09T01:08:41;4.60;;;2.67;;
28822;SDS011;15961;54.678;9.110;2023-10-09T01:11:10;5.45;;;2.63;;
28822;SDS011;15961;54.678;9.110;2023-10-09T01:13:43;2.58;;;2.13;;
28822;SDS011;15961;54.678;9.110;2023-10-09T01:16:16;3.22;;;2.30;;
28822;SDS011;15961;54.678;9.110;2023-10-09T01:18:54;3.55;;;2.47;;
28822;SDS011;15961;54.678;9.110;2023-10-09T01:21:23;4.85;;;2.08;;
28822;SDS011;15961;54.678;9.110;2023-10-09T01:23:54;3.00;;;2.10;;
28822;SDS011;15961;54.678;9.110;2023-10-09T01:29:00;3.75;;;2.15;;
28822;SDS011;15961;54.678;9.110;2023-10-09T01:31:26;10.23;;;2.50;;
28822;SDS011;15961;54.678;9.110;2023-10-09T01:33:52;6.97;;;2.38;;
28822;SDS011;15961;54.678;9.110;2023-10-09T01:36:24;4.07;;;1.90;;
28822;SDS011;15961;54.678;9.110;2023-10-09T01:38:58;6.28;;;2.15;;
28822;SDS011;15961;54.678;9.110;2023-10-09T01:41:24;3.28;;;2.08;;
28822;SDS011;15961;54.678;9.110;2023-10-09T01:43:50;3.00;;;2.28;;
28822;SDS011;15961;54.678;9.110;2023-10-09T01:46:17;3.03;;;2.35;;
28822;SDS011;15961;54.678;9.110;2023-10-09T01:48:44;3.05;;;2.45;;
28822;SDS011;15961;54.678;9.110;2023-10-09T01:51:14;3.35;;;1.65;;
28822;SDS011;15961;54.678;9.110;2023-10-09T01:53:43;3.40;;;2.08;;
28822;SDS011;15961;54.678;9.110;2023-10-09T01:56:10;6.32;;;2.33;;
28822;SDS011;15961;54.678;9.110;2023-10-09T01:58:42;3.95;;;1.60;;
28822;SDS011;15961;54.678;9.110;2023-10-09T02:01:12;3.25;;;2.00;;
28822;SDS011;15961;54.678;9.110;2023-10-09T02:03:38;5.38;;;2.72;;
28822;SDS011;15961;54.678;9.110;2023-10-09T02:06:07;4.03;;;1.90;;
28822;SDS011;15961;54.678;9.110;2023-10-09T02:08:50;3.95;;;1.85;;
28822;SDS011;15961;54.678;9.110;2023-10-09T02:11:16;5.53;;;2.53;;
28822;SDS011;15961;54.678;9.110;2023-10-09T02:13:49;4.18;;;2.08;;
28822;SDS011;15961;54.678;9.110;2023-10-09T02:16:24;4.28;;;2.20;;
28822;SDS011;15961;54.678;9.110;2023-10-09T02:18:53;3.40;;;1.90;;
28822;SDS011;15961;54.678;9.110;2023-10-09T02:21:21;2.53;;;1.95;;
28822;SDS011;15961;54.678;9.110;2023-10-09T02:24:01;4.18;;;1.98;;
28822;SDS011;15961;54.678;9.110;2023-10-09T02:26:34;3.42;;;2.28;;
28822;SDS011;15961;54.678;9.110;2023-10-09T02:29:25;4.63;;;2.50;;
28822;SDS011;15961;54.678;9.110;2023-10-09T02:31:51;3.05;;;2.03;;
28822;SDS011;15961;54.678;9.110;2023-10-09T02:34:17;3.30;;;2.03;;
28822;SDS011;15961;54.678;9.110;2023-10-09T02:36:46;3.60;;;2.30;;
28822;SDS011;15961;54.678;9.110;2023-10-09T02:39:22;5.63;;;1.90;;
28822;SDS011;15961;54.678;9.110;2023-10-09T02:41:49;4.75;;;3.47;;
28822;SDS011;15961;54.678;9.110;2023-10-09T02:44:15;4.80;;;2.67;;
28822;SDS011;15961;54.678;9.110;2023-10-09T02:46:41;2.15;;;1.92;;
28822;SDS011;15961;54.678;9.110;2023-10-09T02:49:06;3.92;;;2.40;;
28822;SDS011;15961;54.678;9.110;2023-10-09T02:51:32;4.15;;;2.42;;
28822;SDS011;15961;54.678;9.110;2023-10-09T02:54:00;4.25;;;2.38;;
28822;SDS011;15961;54.678;9.110;2023-10-09T02:56:32;4.63;;;2.60;;
28822;SDS011;15961;54.678;9.110;2023-10-09T02:59:06;3.97;;;2.50;;
28822;SDS011;15961;54.678;9.110;2023-10-09T03:01:31;4.18;;;2.60;;
28822;SDS011;15961;54.678;9.110;2023-10-09T03:03:59;3.05;;;2.10;;
28822;SDS011;15961;54.678;9.110;2023-10-09T03:06:27;3.47;;;2.15;;
28822;SDS011;15961;54.678;9.110;2023-10-09T03:08:56;3.28;;;1.80;;
28822;SDS011;15961;54.678;9.110;2023-10-09T03:11:22;3.85;;;2.25;;
28822;SDS011;15961;54.678;9.110;2023-10-09T03:13:48;5.93;;;2.35;;
28822;SDS011;15961;54.678;9.110;2023-10-09T03:16:13;3.08;;;2.50;;
28822;SDS011;15961;54.678;9.110;2023-10-09T03:21:19;3.83;;;2.47;;
28822;SDS011;15961;54.678;9.110;2023-10-09T03:23:45;3.50;;;2.30;;
28822;SDS011;15961;54.678;9.110;2023-10-09T03:26:14;4.07;;;2.50;;
28822;SDS011;15961;54.678;9.110;2023-10-09T03:28:42;4.70;;;2.72;;
28822;SDS011;15961;54.678;9.110;2023-10-09T03:31:08;4.00;;;2.60;;
28822;SDS011;15961;54.678;9.110;2023-10-09T03:33:38;5.28;;;2.92;;
28822;SDS011;15961;54.678;9.110;2023-10-09T03:36:04;5.40;;;2.97;;
28822;SDS011;15961;54.678;9.110;2023-10-09T03:38:37;5.68;;;2.38;;
28822;SDS011;15961;54.678;9.110;2023-10-09T03:41:04;8.77;;;3.00;;
28822;SDS011;15961;54.678;9.110;2023-10-09T03:43:37;4.22;;;2.75;;
28822;SDS011;15961;54.678;9.110;2023-10-09T03:46:07;5.13;;;3.22;;
28822;SDS011;15961;54.678;9.110;2023-10-09T03:48:45;5.93;;;2.83;;
28822;SDS011;15961;54.678;9.110;2023-10-09T03:51:11;6.45;;;3.20;;
28822;SDS011;15961;54.678;9.110;2023-10-09T03:53:38;5.35;;;3.00;;
28822;SDS011;15961;54.678;9.110;2023-10-09T03:56:07;6.88;;;3.33;;
28822;SDS011;15961;54.678;9.110;2023-10-09T03:58:41;5.55;;;3.67;;
28822;SDS011;15961;54.678;9.110;2023-10-09T04:01:10;4.22;;;3.00;;
28822;SDS011;15961;54.678;9.110;2023-10-09T04:03:43;4.70;;;3.00;;
28822;SDS011;15961;54.678;9.110;2023-10-09T04:06:09;6.28;;;3.70;;
28822;SDS011;15961;54.678;9.110;2023-10-09T04:08:36;6.93;;;4.32;;
28822;SDS011;15961;54.678;9.110;2023-10-09T04:11:04;5.68;;;3.95;;
28822;SDS011;15961;54.678;9.110;2023-10-09T04:13:41;7.63;;;4.13;;
28822;SDS011;15961;54.678;9.110;2023-10-09T04:16:10;6.35;;;4.53;;
28822;SDS011;15961;54.678;9.110;2023-10-09T04:18:45;7.32;;;4.30;;
28822;SDS011;15961;54.678;9.110;2023-10-09T04:21:10;10.43;;;4.72;;
28822;SDS011;15961;54.678;9.110;2023-10-09T04:23:43;7.53;;;4.35;;
28822;SDS011;15961;54.678;9.110;2023-10-09T04:26:25;7.68;;;5.38;;
28822;SDS011;15961;54.678;9.110;2023-10-09T04:28:51;9.88;;;4.85;;
28822;SDS011;15961;54.678;9.110;2023-10-09T04:31:18;9.27;;;4.95;;
28822;SDS011;15961;54.678;9.110;2023-10-09T04:33:46;5.85;;;4.80;;
28822;SDS011;15961;54.678;9.110;2023-10-09T04:36:32;11.85;;;4.47;;
28822;SDS011;15961;54.678;9.110;2023-10-09T04:39:11;7.13;;;5.15;;
28822;SDS011;15961;54.678;9.110;2023-10-09T04:41:36;11.48;;;4.45;;
28822;SDS011;15961;54.678;9.110;2023-10-09T04:44:08;6.25;;;4.38;;
28822;SDS011;15961;54.678;9.110;2023-10-09T04:46:54;6.75;;;4.13;;
28822;SDS011;15961;54.678;9.110;2023-10-09T04:49:35;10.02;;;5.50;;
28822;SDS011;15961;54.678;9.110;2023-10-09T04:52:21;7.32;;;4.65;;
28822;SDS011;15961;54.678;9.110;2023-10-09T04:54:58;7.28;;;4.88;;
28822;SDS011;15961;54.678;9.110;2023-10-09T04:57:37;8.85;;;4.55;;
28822;SDS011;15961;54.678;9.110;2023-10-09T05:00:17;9.00;;;4.60;;
28822;SDS011;15961;54.678;9.110;2023-10-09T05:05:21;8.38;;;5.55;;
28822;SDS011;15961;54.678;9.110;2023-10-09T05:08:05;7.65;;;5.65;;
28822;SDS011;15961;54.678;9.110;2023-10-09T05:10:50;7.40;;;5.03;;
28822;SDS011;15961;54.678;9.110;2023-10-09T05:13:22;7.80;;;5.55;;
28822;SDS011;15961;54.678;9.110;2023-10-09T05:18:54;11.27;;;5.53;;
28822;SDS011;15961;54.678;9.110;2023-10-09T05:21:34;8.73;;;4.72;;
28822;SDS011;15961;54.678;9.110;2023-10-09T05:24:00;8.10;;;5.18;;
28822;SDS011;15961;54.678;9.110;2023-10-09T05:26:35;9.30;;;4.95;;
28822;SDS011;15961;54.678;9.110;2023-10-09T05:32:13;8.02;;;4.75;;
28822;SDS011;15961;54.678;9.110;2023-10-09T05:34:38;10.77;;;4.47;;
28822;SDS011;15961;54.678;9.110;2023-10-09T05:37:25;7.43;;;4.35;;
28822;SDS011;15961;54.678;9.110;2023-10-09T05:39:57;8.80;;;4.88;;
28822;SDS011;15961;54.678;9.110;2023-10-09T05:42:47;7.35;;;4.13;;
28822;SDS011;15961;54.678;9.110;2023-10-09T05:45:22;7.13;;;4.55;;
28822;SDS011;15961;54.678;9.110;2023-10-09T05:48:20;6.35;;;4.38;;
28822;SDS011;15961;54.678;9.110;2023-10-09T05:50:45;6.80;;;4.38;;
28822;SDS011;15961;54.678;9.110;2023-10-09T05:53:29;10.18;;;4.25;;
28822;SDS011;15961;54.678;9.110;2023-10-09T05:55:54;7.45;;;4.22;;
28822;SDS011;15961;54.678;9.110;2023-10-09T05:58:38;7.10;;;4.47;;
28822;SDS011;15961;54.678;9.110;2023-10-09T06:01:22;4.68;;;3.85;;
28822;SDS011;15961;54.678;9.110;2023-10-09T06:06:40;8.98;;;3.72;;
28822;SDS011;15961;54.678;9.110;2023-10-09T06:09:20;6.72;;;4.30;;
28822;SDS011;15961;54.678;9.110;2023-10-09T06:11:46;6.10;;;4.10;;
28822;SDS011;15961;54.678;9.110;2023-10-09T06:14:15;6.57;;;4.10;;
28822;SDS011;15961;54.678;9.110;2023-10-09T06:16:50;5.75;;;3.97;;
28822;SDS011;15961;54.678;9.110;2023-10-09T06:19:22;5.10;;;3.22;;
28822;SDS011;15961;54.678;9.110;2023-10-09T06:21:48;9.55;;;4.05;;
28822;SDS011;15961;54.678;9.110;2023-10-09T06:24:34;6.25;;;4.28;;
28822;SDS011;15961;54.678;9.110;2023-10-09T06:27:18;5.70;;;4.07;;
28822;SDS011;15961;54.678;9.110;2023-10-09T06:32:49;5.38;;;3.47;;
28822;SDS011;15961;54.678;9.110;2023-10-09T06:35:15;4.80;;;3.55;;
28822;SDS011;15961;54.678;9.110;2023-10-09T06:37:47;5.53;;;3.78;;
28822;SDS011;15961;54.678;9.110;2023-10-09T06:40:26;8.32;;;4.57;;
28822;SDS011;15961;54.678;9.110;2023-10-09T06:43:03;6.60;;;3.17;;
28822;SDS011;15961;54.678;9.110;2023-10-09T06:45:34;7.45;;;4.22;;
28822;SDS011;15961;54.678;9.110;2023-10-09T06:48:08;12.40;;;5.57;;
28822;SDS011;15961;54.678;9.110;2023-10-09T06:50:53;5.40;;;3.38;;
28822;SDS011;15961;54.678;9.110;2023-10-09T06:53:23;8.07;;;4.72;;
28822;SDS011;15961;54.678;9.110;2023-10-09T06:56:11;8.05;;;3.90;;
28822;SDS011;15961;54.678;9.110;2023-10-09T06:58:48;9.43;;;4.55;;
28822;SDS011;15961;54.678;9.110;2023-10-09T07:01:13;7.03;;;3.97;;
28822;SDS011;15961;54.678;9.110;2023-10-09T07:03:45;7.47;;;4.05;;
28822;SDS011;15961;54.678;9.110;2023-10-09T07:06:25;6.65;;;3.72;;
28822;SDS011;15961;54.678;9.110;2023-10-09T07:09:10;7.57;;;3.60;;
28822;SDS011;15961;54.678;9.110;2023-10-09T07:11:39;6.00;;;4.38;;
28822;SDS011;15961;54.678;9.110;2023-10-09T07:14:09;10.05;;;3.33;;
28822;SDS011;15961;54.678;9.110;2023-10-09T07:16:59;6.90;;;4.28;;
28822;SDS011;15961;54.678;9.110;2023-10-09T07:19:43;7.10;;;4.00;;
28822;SDS011;15961;54.678;9.110;2023-10-09T07:22:12;9.48;;;4.15;;
28822;SDS011;15961;54.678;9.110;2023-10-09T07:24:50;7.50;;;4.32;;
28822;SDS011;15961;54.678;9.110;2023-10-09T07:27:36;4.88;;;3.97;;
28822;SDS011;15961;54.678;9.110;2023-10-09T07:30:17;8.93;;;3.85;;
28822;SDS011;15961;54.678;9.110;2023-10-09T07:32:56;9.35;;;4.22;;
28822;SDS011;15961;54.678;9.110;2023-10-09T07:35:41;6.78;;;3.38;;
28822;SDS011;15961;54.678;9.110;2023-10-09T07:38:12;4.72;;;3.53;;
28822;SDS011;15961;54.678;9.110;2023-10-09T07:40:44;7.20;;;3.83;;
28822;SDS011;15961;54.678;9.110;2023-10-09T07:46:01;5.85;;;3.25;;
28822;SDS011;15961;54.678;9.110;2023-10-09T07:48:27;6.03;;;3.55;;
28822;SDS011;15961;54.678;9.110;2023-10-09T07:51:03;5.97;;;3.40;;
28822;SDS011;15961;54.678;9.110;2023-10-09T07:53:37;4.82;;;3.20;;
28822;SDS011;15961;54.678;9.110;2023-10-09T07:56:09;4.88;;;3.65;;
28822;SDS011;15961;54.678;9.110;2023-10-09T07:58:34;5.32;;;3.00;;
28822;SDS011;15961;54.678;9.110;2023-10-09T08:01:11;3.78;;;2.80;;
28822;SDS011;15961;54.678;9.110;2023-10-09T08:04:00;4.20;;;3.15;;
28822;SDS011;15961;54.678;9.110;2023-10-09T08:06:38;3.90;;;2.85;;
28822;SDS011;15961;54.678;9.110;2023-10-09T08:09:04;4.38;;;3.38;;
28822;SDS011;15961;54.678;9.110;2023-10-09T08:11:46;3.65;;;3.08;;
28822;SDS011;15961;54.678;9.110;2023-10-09T08:14:31;3.60;;;2.80;;
28822;SDS011;15961;54.678;9.110;2023-10-09T08:16:59;4.40;;;3.05;;
28822;SDS011;15961;54.678;9.110;2023-10-09T08:19:40;4.07;;;2.97;;
28822;SDS011;15961;54.678;9.110;2023-10-09T08:22:24;5.55;;;3.10;;
28822;SDS011;15961;54.678;9.110;2023-10-09T08:24:51;4.15;;;3.28;;
28822;SDS011;15961;54.678;9.110;2023-10-09T08:27:23;5.00;;;2.92;;
28822;SDS011;15961;54.678;9.110;2023-10-09T08:32:42;3.38;;;2.58;;
28822;SDS011;15961;54.678;9.110;2023-10-09T08:35:10;6.85;;;3.30;;
28822;SDS011;15961;54.678;9.110;2023-10-09T08:37:59;3.30;;;2.42;;
28822;SDS011;15961;54.678;9.110;2023-10-09T08:40:33;4.35;;;2.75;;
28822;SDS011;15961;54.678;9.110;2023-10-09T08:43:23;3.90;;;3.28;;
28822;SDS011;15961;54.678;9.110;2023-10-09T08:48:20;3.38;;;2.42;;
28822;SDS011;15961;54.678;9.110;2023-10-09T08:50:51;3.10;;;1.90;;
28822;SDS011;15961;54.678;9.110;2023-10-09T08:53:19;3.10;;;2.17;;
28822;SDS011;15961;54.678;9.110;2023-10-09T08:55:45;3.53;;;2.58;;
28822;SDS011;15961;54.678;9.110;2023-10-09T08:58:11;3.75;;;2.17;;
28822;SDS011;15961;54.678;9.110;2023-10-09T09:00:50;2.92;;;2.50;;
28822;SDS011;15961;54.678;9.110;2023-10-09T09:03:16;3.83;;;2.30;;
28822;SDS011;15961;54.678;9.110;2023-10-09T09:06:00;3.20;;;2.38;;
28822;SDS011;15961;54.678;9.110;2023-10-09T09:08:27;3.60;;;2.42;;
28822;SDS011;15961;54.678;9.110;2023-10-09T09:10:57;3.47;;;2.38;;
28822;SDS011;15961;54.678;9.110;2023-10-09T09:15:50;3.10;;;2.22;;
28822;SDS011;15961;54.678;9.110;2023-10-09T09:18:18;3.40;;;1.88;;
28822;SDS011;15961;54.678;9.110;2023-10-09T09:20:44;3.13;;;2.00;;
28822;SDS011;15961;54.678;9.110;2023-10-09T09:23:12;3.95;;;2.33;;
28822;SDS011;15961;54.678;9.110;2023-10-09T09:25:39;3.65;;;2.20;;
28822;SDS011;15961;54.678;9.110;2023-10-09T09:28:25;2.70;;;2.05;;
28822;SDS011;15961;54.678;9.110;2023-10-09T09:30:52;2.45;;;2.25;;
28822;SDS011;15961;54.678;9.110;2023-10-09T09:33:26;2.80;;;2.10;;
28822;SDS011;15961;54.678;9.110;2023-10-09T09:35:59;2.30;;;2.00;;
28822;SDS011;15961;54.678;9.110;2023-10-09T09:38:28;2.50;;;2.10;;
28822;SDS011;15961;54.678;9.110;2023-10-09T09:40:54;4.07;;;2.35;;
28822;SDS011;15961;54.678;9.110;2023-10-09T09:43:21;3.03;;;2.65;;
28822;SDS011;15961;54.678;9.110;2023-10-09T09:45:47;2.10;;;1.70;;
28822;SDS011;15961;54.678;9.110;2023-10-09T09:48:14;3.33;;;2.20;;
28822;SDS011;15961;54.678;9.110;2023-10-09T09:50:41;3.28;;;2.70;;
28822;SDS011;15961;54.678;9.110;2023-10-09T09:53:13;3.78;;;2.33;;
28822;SDS011;15961;54.678;9.110;2023-10-09T09:55:42;3.00;;;2.70;;
28822;SDS011;15961;54.678;9.110;2023-10-09T09:58:16;2.95;;;2.30;;
28822;SDS011;15961;54.678;9.110;2023-10-09T10:00:45;3.00;;;1.95;;
28822;SDS011;15961;54.678;9.110;2023-10-09T10:03:19;2.85;;;1.92;;
28822;SDS011;15961;54.678;9.110;2023-10-09T10:06:00;4.15;;;2.45;;
28822;SDS011;15961;54.678;9.110;2023-10-09T10:08:30;2.88;;;2.38;;
28822;SDS011;15961;54.678;9.110;2023-10-09T10:10:58;3.97;;;2.88;;
28822;SDS011;15961;54.678;9.110;2023-10-09T10:13:54;2.20;;;1.95;;
28822;SDS011;15961;54.678;9.110;2023-10-09T10:16:21;3.08;;;1.92;;
28822;SDS011;15961;54.678;9.110;2023-10-09T10:21:43;2.33;;;1.90;;
28822;SDS011;15961;54.678;9.110;2023-10-09T10:29:43;4.10;;;2.78;;
28822;SDS011;15961;54.678;9.110;2023-10-09T10:32:11;3.28;;;2.28;;
28822;SDS011;15961;54.678;9.110;2023-10-09T10:37:35;2.80;;;2.33;;
28822;SDS011;15961;54.678;9.110;2023-10-09T10:40:25;2.95;;;2.53;;
28822;SDS011;15961;54.678;9.110;2023-10-09T10:43:04;4.45;;;2.83;;
28822;SDS011;15961;54.678;9.110;2023-10-09T10:45:39;3.33;;;2.45;;
28822;SDS011;15961;54.678;9.110;2023-10-09T10:48:10;2.97;;;2.67;;
28822;SDS011;15961;54.678;9.110;2023-10-09T10:50:48;2.17;;;1.90;;
28822;SDS011;15961;54.678;9.110;2023-10-09T10:53:14;3.05;;;2.20;;
28822;SDS011;15961;54.678;9.110;2023-10-09T10:55:59;2.70;;;2.00;;
28822;SDS011;15961;54.678;9.110;2023-10-09T10:58:40;3.22;;;2.92;;
28822;SDS011;15961;54.678;9.110;2023-10-09T11:01:36;2.90;;;2.05;;
28822;SDS011;15961;54.678;9.110;2023-10-09T11:04:21;2.53;;;1.95;;
28822;SDS011;15961;54.678;9.110;2023-10-09T11:06:57;2.65;;;2.20;;
28822;SDS011;15961;54.678;9.110;2023-10-09T11:15:07;2.72;;;1.85;;
28822;SDS011;15961;54.678;9.110;2023-10-09T11:17:58;2.20;;;2.00;;
28822;SDS011;15961;54.678;9.110;2023-10-09T11:20:41;2.42;;;1.90;;
28822;SDS011;15961;54.678;9.110;2023-10-09T11:23:19;2.13;;;1.80;;
28822;SDS011;15961;54.678;9.110;2023-10-09T11:25:54;5.03;;;2.58;;
28822;SDS011;15961;54.678;9.110;2023-10-09T11:28:32;3.42;;;2.42;;
28822;SDS011;15961;54.678;9.110;2023-10-09T11:31:14;4.22;;;2.13;;
28822;SDS011;15961;54.678;9.110;2023-10-09T11:33:46;2.88;;;2.20;;
28822;SDS011;15961;54.678;9.110;2023-10-09T11:36:13;2.97;;;2.50;;
28822;SDS011;15961;54.678;9.110;2023-10-09T11:38:42;3.05;;;2.75;;
28822;SDS011;15961;54.678;9.110;2023-10-09T11:41:17;2.60;;;2.35;;
28822;SDS011;15961;54.678;9.110;2023-10-09T11:43:52;2.83;;;2.13;;
28822;SDS011;15961;54.678;9.110;2023-10-09T11:46:19;3.08;;;2.42;;
28822;SDS011;15961;54.678;9.110;2023-10-09T11:49:06;2.83;;;2.40;;
28822;SDS011;15961;54.678;9.110;2023-10-09T11:51:47;3.60;;;2.30;;
28822;SDS011;15961;54.678;9.110;2023-10-09T11:54:32;2.65;;;2.35;;
28822;SDS011;15961;54.678;9.110;2023-10-09T11:57:00;3.03;;;2.13;;
28822;SDS011;15961;54.678;9.110;2023-10-09T11:59:26;3.47;;;2.15;;
28822;SDS011;15961;54.678;9.110;2023-10-09T12:01:53;1.95;;;1.52;;
28822;SDS011;15961;54.678;9.110;2023-10-09T12:04:20;2.83;;;1.90;;
28822;SDS011;15961;54.678;9.110;2023-10-09T12:06:45;2.78;;;2.30;;
28822;SDS011;15961;54.678;9.110;2023-10-09T12:09:10;2.42;;;2.22;;
28822;SDS011;15961;54.678;9.110;2023-10-09T12:11:42;2.33;;;1.92;;
28822;SDS011;15961;54.678;9.110;2023-10-09T12:14:08;2.58;;;1.98;;
28822;SDS011;15961;54.678;9.110;2023-10-09T12:16:34;2.60;;;2.40;;
28822;SDS011;15961;54.678;9.110;2023-10-09T12:19:03;2.50;;;1.70;;
28822;SDS011;15961;54.678;9.110;2023-10-09T12:21:37;2.63;;;1.98;;
28822;SDS011;15961;54.678;9.110;2023-10-09T12:24:04;4.40;;;1.88;;
28822;SDS011;15961;54.678;9.110;2023-10-09T12:26:36;2.40;;;1.90;;
28822;SDS011;15961;54.678;9.110;2023-10-09T12:29:03;1.90;;;1.80;;
28822;SDS011;15961;54.678;9.110;2023-10-09T12:31:29;2.45;;;2.00;;
28822;SDS011;15961;54.678;9.110;2023-10-09T12:33:58;3.08;;;2.63;;
28822;SDS011;15961;54.678;9.110;2023-10-09T12:36:24;2.45;;;2.10;;
28822;SDS011;15961;54.678;9.110;2023-10-09T12:38:49;2.97;;;2.20;;
28822;SDS011;15961;54.678;9.110;2023-10-09T12:41:19;2.47;;;1.98;;
28822;SDS011;15961;54.678;9.110;2023-10-09T12:43:50;2.70;;;2.08;;
28822;SDS011;15961;54.678;9.110;2023-10-09T12:46:17;3.03;;;1.90;;
28822;SDS011;15961;54.678;9.110;2023-10-09T12:48:45;2.40;;;2.17;;
28822;SDS011;15961;54.678;9.110;2023-10-09T12:51:11;2.22;;;2.03;;
28822;SDS011;15961;54.678;9.110;2023-10-09T12:53:41;2.40;;;1.90;;
28822;SDS011;15961;54.678;9.110;2023-10-09T12:56:07;3.25;;;1.90;;
28822;SDS011;15961;54.678;9.110;2023-10-09T12:58:37;2.35;;;2.00;;
28822;SDS011;15961;54.678;9.110;2023-10-09T13:01:03;2.38;;;1.95;;
28822;SDS011;15961;54.678;9.110;2023-10-09T13:03:36;2.30;;;1.90;;
28822;SDS011;15961;54.678;9.110;2023-10-09T13:06:04;2.30;;;2.05;;
28822;SDS011;15961;54.678;9.110;2023-10-09T13:08:35;3.00;;;2.28;;
28822;SDS011;15961;54.678;9.110;2023-10-09T13:11:05;3.10;;;2.25;;
28822;SDS011;15961;54.678;9.110;2023-10-09T13:13:37;2.33;;;2.03;;
28822;SDS011;15961;54.678;9.110;2023-10-09T13:16:11;2.55;;;2.00;;
28822;SDS011;15961;54.678;9.110;2023-10-09T13:18:39;2.53;;;2.13;;
28822;SDS011;15961;54.678;9.110;2023-10-09T13:21:14;3.22;;;2.10;;
28822;SDS011;15961;54.678;9.110;2023-10-09T13:23:47;3.55;;;2.30;;
28822;SDS011;15961;54.678;9.110;2023-10-09T13:26:15;3.00;;;2.40;;
28822;SDS011;15961;54.678;9.110;2023-10-09T13:28:47;3.17;;;2.10;;
28822;SDS011;15961;54.678;9.110;2023-10-09T13:31:13;2.78;;;2.42;;
28822;SDS011;15961;54.678;9.110;2023-10-09T13:33:40;2.72;;;2.28;;
28822;SDS011;15961;54.678;9.110;2023-10-09T13:36:05;2.83;;;2.55;;
28822;SDS011;15961;54.678;9.110;2023-10-09T13:38:41;3.45;;;2.22;;
28822;SDS011;15961;54.678;9.110;2023-10-09T13:41:08;3.53;;;2.50;;
28822;SDS011;15961;54.678;9.110;2023-10-09T13:43:38;4.20;;;2.65;;
28822;SDS011;15961;54.678;9.110;2023-10-09T13:46:05;3.03;;;2.45;;
28822;SDS011;15961;54.678;9.110;2023-10-09T13:48:33;2.95;;;2.63;;
28822;SDS011;15961;54.678;9.110;2023-10-09T13:51:03;2.88;;;2.30;;
28822;SDS011;15961;54.678;9.110;2023-10-09T13:53:34;2.85;;;2.40;;
28822;SDS011;15961;54.678;9.110;2023-10-09T13:56:10;2.63;;;2.03;;
28822;SDS011;15961;54.678;9.110;2023-10-09T13:58:45;2.70;;;1.75;;
28822;SDS011;15961;54.678;9.110;2023-10-09T14:01:12;1.75;;;1.30;;
28822;SDS011;15961;54.678;9.110;2023-10-09T14:03:45;3.08;;;2.22;;
28822;SDS011;15961;54.678;9.110;2023-10-09T14:06:31;3.03;;;2.38;;
28822;SDS011;15961;54.678;9.110;2023-10-09T14:08:57;2.10;;;1.75;;
28822;SDS011;15961;54.678;9.110;2023-10-09T14:11:23;2.08;;;1.88;;
28822;SDS011;15961;54.678;9.110;2023-10-09T14:13:49;2.53;;;2.25;;
28822;SDS011;15961;54.678;9.110;2023-10-09T14:16:16;2.65;;;2.10;;
28822;SDS011;15961;54.678;9.110;2023-10-09T14:18:55;3.30;;;2.17;;
28822;SDS011;15961;54.678;9.110;2023-10-09T14:21:29;2.95;;;2.10;;
28822;SDS011;15961;54.678;9.110;2023-10-09T14:23:58;3.58;;;2.47;;
28822;SDS011;15961;54.678;9.110;2023-10-09T14:26:27;2.65;;;2.10;;
28822;SDS011;15961;54.678;9.110;2023-10-09T14:28:53;3.55;;;2.13;;
28822;SDS011;15961;54.678;9.110;2023-10-09T14:31:21;2.90;;;2.70;;
28822;SDS011;15961;54.678;9.110;2023-10-09T14:33:52;2.78;;;2.28;;
28822;SDS011;15961;54.678;9.110;2023-10-09T14:36:27;3.25;;;2.30;;
28822;SDS011;15961;54.678;9.110;2023-10-09T14:38:58;2.40;;;2.10;;
28822;SDS011;15961;54.678;9.110;2023-10-09T14:41:24;3.75;;;2.08;;
28822;SDS011;15961;54.678;9.110;2023-10-09T14:43:51;3.72;;;2.50;;
28822;SDS011;15961;54.678;9.110;2023-10-09T14:46:19;3.75;;;2.70;;
28822;SDS011;15961;54.678;9.110;2023-10-09T14:48:53;3.80;;;2.70;;
28822;SDS011;15961;54.678;9.110;2023-10-09T14:51:22;3.08;;;2.53;;
28822;SDS011;15961;54.678;9.110;2023-10-09T14:53:58;2.38;;;2.17;;
28822;SDS011;15961;54.678;9.110;2023-10-09T14:56:32;4.07;;;2.80;;
28822;SDS011;15961;54.678;9.110;2023-10-09T14:59:01;4.00;;;2.63;;
28822;SDS011;15961;54.678;9.110;2023-10-09T15:01:27;4.45;;;2.03;;
28822;SDS011;15961;54.678;9.110;2023-10-09T15:03:59;5.50;;;3.40;;
28822;SDS011;15961;54.678;9.110;2023-10-09T15:06:25;3.75;;;3.17;;
28822;SDS011;15961;54.678;9.110;2023-10-09T15:08:53;5.30;;;3.50;;
28822;SDS011;15961;54.678;9.110;2023-10-09T15:11:23;4.35;;;3.83;;
28822;SDS011;15961;54.678;9.110;2023-10-09T15:13:50;4.25;;;3.40;;
28822;SDS011;15961;54.678;9.110;2023-10-09T15:16:17;4.00;;;3.38;;
28822;SDS011;15961;54.678;9.110;2023-10-09T15:18:42;3.78;;;3.38;;
28822;SDS011;15961;54.678;9.110;2023-10-09T15:21:08;5.38;;;3.58;;
28822;SDS011;15961;54.678;9.110;2023-10-09T15:23:33;3.60;;;3.20;;
28822;SDS011;15961;54.678;9.110;2023-10-09T15:26:01;5.30;;;3.50;;
28822;SDS011;15961;54.678;9.110;2023-10-09T15:28:26;3.97;;;3.28;;
28822;SDS011;15961;54.678;9.110;2023-10-09T15:30:57;3.80;;;3.10;;
28822;SDS011;15961;54.678;9.110;2023-10-09T15:33:22;3.85;;;3.05;;
28822;SDS011;15961;54.678;9.110;2023-10-09T15:35:47;3.85;;;2.80;;
28822;SDS011;15961;54.678;9.110;2023-10-09T15:38:14;4.60;;;3.45;;
28822;SDS011;15961;54.678;9.110;2023-10-09T15:40:43;4.00;;;2.15;;
28822;SDS011;15961;54.678;9.110;2023-10-09T15:43:11;3.70;;;2.83;;
28822;SDS011;15961;54.678;9.110;2023-10-09T15:45:44;3.33;;;3.00;;
28822;SDS011;15961;54.678;9.110;2023-10-09T15:48:13;4.13;;;2.40;;
28822;SDS011;15961;54.678;9.110;2023-10-09T15:50:40;3.70;;;2.63;;
28822;SDS011;15961;54.678;9.110;2023-10-09T15:53:13;4.10;;;2.78;;
28822;SDS011;15961;54.678;9.110;2023-10-09T15:55:38;4.78;;;3.20;;
28822;SDS011;15961;54.678;9.110;2023-10-09T15:58:04;5.22;;;3.28;;
28822;SDS011;15961;54.678;9.110;2023-10-09T16:00:33;4.93;;;2.70;;
28822;SDS011;15961;54.678;9.110;2023-10-09T16:02:59;4.07;;;3.10;;